map of GSM home
GSM - Airport
Location
City:  Dayrestan, Queshm Island, Hormozgan, Iran
Name:Dayrestan Airport
Old (Alt.):Queshm International Airport
ICAO:OIKQ
IATA:GSM

Details
Type:Airport (Aerodrome, Airfield)
Use:International (customs port of entry)
Latitude:2645'17"N (26.754639)
Longitude:5554'08"E (55.902353)
Datum:WGS 1984
Elevation:45 ft (14 m)
Variation:2.31E (WMM2015 magnetic declination)
0.05 annual change
Runways:1
Longest:13864 × 148 ft (4226 × 45 m), paved

Time
Time Zone:UTC+3:30 (DST+4:30)
Local Time:

Weather
METAR:OIKQ 201500Z 00000KT CAVOK 29/22 Q1013

Related Locations
Nearby:
Farthest:GMR: 11723 mi / 18866 km
Mangareva [Totegegie], Gambier Islands, PF

Find:

   beyond  
but within

Other Information
Maps:
NOTAMs:
Links:
Sources:

  
  • flag of Iran
  

Sectional Chart

Flight Planning
at skyvector.com

Satellite Image

Google Maps Satellite view

 

Copyright © 2004-2018 Karl L. Swartz. All rights reserved.
The Great Circle Mapper name and logo are trademarks of the Great Circle Mapper.
All other trademarks mentioned herein belong to their respective owners.
Please see credits for attibutions and further copyright information.

  Follow gcmap on Facebook Follow gcmap on Twitter Follow gcmap on Google+ GCmap on LinkedIn

hCard Microformat

Geo Microformat